createdAt,value
2018-06-17T00:02:06.753Z,19.00
2018-06-17T00:04:37.157Z,18.90
2018-06-17T00:07:07.645Z,19.00
2018-06-17T00:09:38.069Z,19.00
2018-06-17T00:12:08.844Z,18.90
2018-06-17T00:14:39.348Z,18.90
2018-06-17T00:17:10.044Z,18.80
2018-06-17T00:19:40.886Z,18.80
2018-06-17T00:22:11.338Z,18.80
2018-06-17T00:24:41.798Z,18.70
2018-06-17T00:27:12.219Z,18.60
2018-06-17T00:29:43.425Z,18.60
2018-06-17T00:32:13.940Z,18.60
2018-06-17T00:34:44.427Z,18.60
2018-06-17T00:37:15.026Z,18.50
2018-06-17T00:39:45.477Z,18.50
2018-06-17T00:42:15.970Z,18.40
2018-06-17T00:44:46.651Z,18.40
2018-06-17T00:47:17.537Z,18.40
2018-06-17T00:49:47.951Z,18.30
2018-06-17T00:52:18.311Z,18.30
2018-06-17T00:54:48.740Z,18.30
2018-06-17T00:57:30.096Z,18.30
2018-06-17T01:00:00.534Z,18.20
2018-06-17T01:02:31.532Z,18.10
2018-06-17T01:05:02.704Z,18.10
2018-06-17T01:07:33.405Z,18.10
2018-06-17T01:10:04.181Z,18.10
2018-06-17T01:12:34.703Z,18.10
2018-06-17T01:15:05.144Z,18.10
2018-06-17T01:17:35.702Z,18.10
2018-06-17T01:20:06.771Z,18.10
2018-06-17T01:22:38.063Z,18.10
2018-06-17T01:25:08.665Z,18.10
2018-06-17T01:27:39.125Z,18.10
2018-06-17T01:30:09.534Z,18.10
2018-06-17T01:32:40.539Z,18.10
2018-06-17T01:35:10.958Z,18.20
2018-06-17T01:37:41.367Z,18.20
2018-06-17T01:40:11.698Z,18.20
2018-06-17T01:42:42.048Z,18.20
2018-06-17T01:45:12.493Z,18.20
2018-06-17T01:47:42.995Z,18.20
2018-06-17T01:50:13.360Z,18.20
2018-06-17T01:52:44.072Z,18.20
2018-06-17T01:55:14.848Z,18.20
2018-06-17T01:57:45.451Z,18.10
2018-06-17T02:00:16.103Z,18.10
2018-06-17T02:02:46.720Z,18.10
2018-06-17T02:05:22.908Z,18.10
2018-06-17T02:07:58.331Z,18.10
2018-06-17T02:10:33.742Z,18.10
2018-06-17T02:13:04.613Z,18.10
2018-06-17T02:15:35.353Z,18.10
2018-06-17T02:18:05.902Z,18.10
2018-06-17T02:20:36.415Z,18.10
2018-06-17T02:23:07.441Z,18.10
2018-06-17T02:25:37.943Z,18.10
2018-06-17T02:28:08.644Z,18.20
2018-06-17T02:30:39.174Z,18.10
2018-06-17T02:33:09.829Z,18.10
2018-06-17T02:35:40.413Z,18.10
2018-06-17T02:38:10.994Z,18.20
2018-06-17T02:40:41.497Z,18.20
2018-06-17T02:43:11.999Z,18.20
2018-06-17T02:45:47.490Z,18.20
2018-06-17T02:48:22.930Z,18.20
2018-06-17T02:50:58.421Z,18.20
2018-06-17T02:53:33.833Z,18.30
2018-06-17T02:56:04.246Z,18.30
2018-06-17T02:58:34.683Z,18.30
2018-06-17T03:01:05.204Z,18.30
2018-06-17T03:03:35.999Z,18.30
2018-06-17T03:06:06.864Z,18.30
2018-06-17T03:08:37.304Z,18.30
2018-06-17T03:11:07.983Z,18.30
2018-06-17T03:13:38.512Z,18.30
2018-06-17T03:16:08.914Z,18.30
2018-06-17T03:18:39.548Z,18.30
2018-06-17T03:21:09.960Z,18.40
2018-06-17T03:23:40.520Z,18.40
2018-06-17T03:26:15.851Z,18.40
2018-06-17T03:28:51.516Z,18.40
2018-06-17T03:31:21.945Z,18.50
2018-06-17T03:33:56.433Z,18.50
2018-06-17T03:36:26.798Z,18.50
2018-06-17T03:38:57.287Z,18.60
2018-06-17T03:41:27.689Z,18.70
2018-06-17T03:43:58.067Z,18.70
2018-06-17T03:46:28.698Z,18.70
2018-06-17T03:48:59.435Z,18.80
2018-06-17T03:51:30.066Z,18.80
2018-06-17T03:54:00.550Z,18.80
2018-06-17T03:56:30.963Z,18.80
2018-06-17T03:59:01.569Z,18.90
2018-06-17T04:01:32.142Z,18.90
2018-06-17T04:04:02.649Z,18.90
2018-06-17T04:06:33.159Z,18.90
2018-06-17T04:09:03.867Z,19.00
2018-06-17T04:11:34.547Z,19.10
2018-06-17T04:14:05.134Z,19.10
2018-06-17T04:16:35.605Z,19.10
2018-06-17T04:19:06.024Z,19.10
2018-06-17T04:21:36.735Z,19.10
2018-06-17T04:24:07.323Z,19.20
2018-06-17T04:26:37.680Z,19.20
2018-06-17T04:29:08.365Z,19.20
2018-06-17T04:31:38.881Z,19.20
2018-06-17T04:34:09.532Z,19.20
2018-06-17T04:36:39.896Z,19.20
2018-06-17T04:39:10.332Z,19.30
2018-06-17T04:41:40.771Z,19.30
2018-06-17T04:44:11.136Z,19.30
2018-06-17T04:46:41.592Z,19.30
2018-06-17T04:49:12.457Z,19.30
2018-06-17T04:51:42.986Z,19.30
2018-06-17T04:54:13.695Z,19.30
2018-06-17T04:56:44.136Z,19.40
2018-06-17T04:59:14.583Z,19.40
2018-06-17T05:01:45.136Z,19.40
2018-06-17T05:04:15.511Z,19.40
2018-06-17T05:06:46.158Z,19.50
2018-06-17T05:09:16.679Z,19.50
2018-06-17T05:11:47.560Z,19.50
2018-06-17T05:14:18.190Z,19.60
2018-06-17T05:16:48.723Z,19.60
2018-06-17T05:19:19.501Z,19.60
2018-06-17T05:21:50.020Z,19.60
2018-06-17T05:24:20.325Z,19.60
2018-06-17T05:26:51.095Z,19.60
2018-06-17T05:29:21.424Z,19.60
2018-06-17T05:31:51.848Z,19.60
2018-06-17T05:34:22.447Z,19.60
2018-06-17T05:36:53.045Z,19.60
2018-06-17T05:39:23.547Z,19.60
2018-06-17T05:41:53.903Z,19.70
2018-06-17T05:44:24.681Z,19.80
2018-06-17T05:46:55.264Z,19.80
2018-06-17T05:49:25.832Z,20.00
2018-06-17T05:51:56.243Z,20.10
2018-06-17T05:54:26.704Z,20.20
2018-06-17T05:56:57.516Z,20.30
2018-06-17T05:59:28.735Z,20.40
2018-06-17T06:01:59.243Z,20.50
2018-06-17T06:04:29.801Z,20.60
2018-06-17T06:07:00.281Z,20.70
2018-06-17T06:09:30.746Z,20.80
2018-06-17T06:12:01.374Z,20.90
2018-06-17T06:14:31.806Z,21.00
2018-06-17T06:17:02.284Z,21.10
2018-06-17T06:19:32.742Z,21.20
2018-06-17T06:22:03.575Z,21.40
2018-06-17T06:24:34.049Z,21.40
2018-06-17T06:27:04.456Z,21.60
2018-06-17T06:29:35.614Z,21.70
2018-06-17T06:32:06.258Z,21.80
2018-06-17T06:34:37.025Z,21.90
2018-06-17T06:37:07.501Z,21.90
2018-06-17T06:39:38.072Z,22.20
2018-06-17T06:42:08.611Z,22.30
2018-06-17T06:44:39.047Z,22.50
2018-06-17T06:47:09.656Z,22.50
2018-06-17T06:49:40.201Z,22.70
2018-06-17T06:52:10.621Z,22.80
2018-06-17T06:54:41.360Z,22.90
2018-06-17T06:57:11.952Z,23.00
2018-06-17T06:59:42.268Z,23.00
2018-06-17T07:02:23.739Z,22.90
2018-06-17T07:05:05.203Z,22.80
2018-06-17T07:07:46.506Z,22.90
2018-06-17T07:10:25.050Z,22.80
2018-06-17T07:12:55.788Z,22.70
2018-06-17T07:15:38.414Z,22.70
2018-06-17T07:18:19.486Z,22.70
2018-06-17T07:20:49.872Z,22.90
2018-06-17T07:23:20.137Z,22.90
2018-06-17T07:26:28.535Z,23.10
2018-06-17T07:29:09.727Z,23.30
2018-06-17T07:31:39.967Z,23.20
2018-06-17T07:34:11.336Z,23.30
2018-06-17T07:36:41.854Z,23.50
2018-06-17T07:40:25.420Z,23.60
2018-06-17T07:42:55.728Z,23.50
2018-06-17T07:45:25.963Z,23.50
2018-06-17T07:47:56.425Z,23.40
2018-06-17T07:50:37.515Z,23.40
2018-06-17T07:53:17.960Z,23.30
2018-06-17T07:55:49.052Z,23.40
2018-06-17T07:58:19.676Z,23.30
2018-06-17T08:00:50.043Z,23.20
2018-06-17T08:03:20.731Z,23.20
2018-06-17T08:05:51.104Z,23.20
2018-06-17T08:08:21.409Z,23.10
2018-06-17T08:10:51.926Z,23.00
2018-06-17T08:13:22.213Z,23.10
2018-06-17T08:15:52.653Z,23.10
2018-06-17T08:18:25.871Z,23.10
2018-06-17T08:20:56.329Z,23.10
2018-06-17T08:23:26.812Z,23.10
2018-06-17T08:25:57.027Z,23.10
2018-06-17T08:28:27.260Z,23.10
2018-06-17T08:30:57.671Z,23.20
2018-06-17T08:33:27.855Z,23.20
2018-06-17T08:35:57.993Z,23.10
2018-06-17T08:38:28.358Z,23.10
2018-06-17T08:40:59.877Z,23.10
2018-06-17T08:43:30.915Z,23.00
2018-06-17T08:46:01.228Z,23.10
2018-06-17T08:48:40.410Z,23.00
2018-06-17T08:51:12.671Z,23.10
2018-06-17T08:53:44.092Z,23.10
2018-06-17T08:56:18.685Z,23.00
2018-06-17T08:58:49.890Z,23.00
2018-06-17T09:01:22.728Z,23.10
2018-06-17T09:03:53.523Z,23.10
2018-06-17T09:06:25.307Z,23.20
2018-06-17T09:08:56.792Z,23.20
2018-06-17T09:11:28.217Z,23.40
2018-06-17T09:13:58.697Z,23.50
2018-06-17T09:16:28.925Z,23.60
2018-06-17T09:18:59.232Z,23.80
2018-06-17T09:21:29.831Z,23.90
2018-06-17T09:23:59.955Z,24.00
2018-06-17T09:26:30.108Z,24.00
2018-06-17T09:29:00.308Z,24.00
2018-06-17T09:31:30.651Z,24.10
2018-06-17T09:34:01.181Z,24.20
2018-06-17T09:36:31.551Z,24.40
2018-06-17T09:39:01.952Z,24.40
2018-06-17T09:41:32.196Z,24.60
2018-06-17T09:44:02.569Z,24.70
2018-06-17T09:46:33.128Z,24.80
2018-06-17T09:49:03.429Z,24.70
2018-06-17T09:51:33.643Z,24.70
2018-06-17T09:54:03.679Z,24.90
2018-06-17T09:56:33.867Z,25.10
2018-06-17T09:59:04.088Z,25.20
2018-06-17T10:01:34.356Z,25.20
2018-06-17T10:04:04.611Z,25.30
2018-06-17T10:06:34.901Z,25.30
2018-06-17T10:09:08.149Z,25.50
2018-06-17T10:11:38.514Z,25.60
2018-06-17T10:14:09.185Z,25.60
2018-06-17T10:16:39.872Z,25.70
2018-06-17T10:19:10.183Z,25.50
2018-06-17T10:21:40.884Z,25.50
2018-06-17T10:24:11.340Z,25.50
2018-06-17T10:26:41.793Z,25.50
2018-06-17T10:29:12.368Z,25.50
2018-06-17T10:31:42.907Z,25.40
2018-06-17T10:34:13.578Z,25.50
2018-06-17T10:36:44.074Z,25.60
2018-06-17T10:39:15.827Z,25.60
2018-06-17T10:41:46.953Z,25.70
2018-06-17T10:44:18.384Z,25.90
2018-06-17T10:46:50.144Z,26.10
2018-06-17T10:49:21.577Z,26.00
2018-06-17T10:51:52.290Z,26.00
2018-06-17T10:54:23.397Z,26.10
2018-06-17T10:56:53.917Z,26.30
2018-06-17T10:59:24.318Z,26.40
2018-06-17T11:01:54.991Z,26.30
2018-06-17T11:04:25.361Z,26.30
2018-06-17T11:06:55.790Z,26.40
2018-06-17T11:09:27.585Z,26.50
2018-06-17T11:11:58.293Z,26.60
2018-06-17T11:14:28.651Z,26.70
2018-06-17T11:16:59.126Z,26.70
2018-06-17T11:19:29.631Z,26.80
2018-06-17T11:22:00.008Z,26.90
2018-06-17T11:24:30.635Z,26.90
2018-06-17T11:27:01.064Z,26.90
2018-06-17T11:29:31.386Z,26.90
2018-06-17T11:32:01.921Z,27.00
2018-06-17T11:34:32.360Z,27.00
2018-06-17T11:37:03.182Z,27.00
2018-06-17T11:39:33.980Z,27.10
2018-06-17T11:42:04.706Z,27.10
2018-06-17T11:44:35.199Z,27.10
2018-06-17T11:47:05.930Z,27.50
2018-06-17T11:49:36.828Z,27.80
2018-06-17T11:52:07.424Z,28.10
2018-06-17T11:54:38.130Z,28.00
2018-06-17T11:57:08.971Z,27.90
2018-06-17T11:59:39.774Z,28.30
2018-06-17T12:02:10.246Z,28.10
2018-06-17T12:04:41.495Z,28.00
2018-06-17T12:07:27.773Z,28.00
2018-06-17T12:10:15.616Z,28.10
2018-06-17T12:12:47.434Z,27.90
2018-06-17T12:15:17.900Z,27.90
2018-06-17T12:17:48.520Z,28.00
2018-06-17T12:20:18.972Z,28.20
2018-06-17T12:22:49.590Z,28.20
2018-06-17T12:25:20.094Z,28.40
2018-06-17T12:27:51.239Z,28.90
2018-06-17T12:30:21.706Z,29.20
2018-06-17T12:32:52.307Z,29.30
2018-06-17T12:35:22.697Z,29.60
2018-06-17T12:37:53.661Z,29.90
2018-06-17T12:40:24.251Z,30.00
2018-06-17T12:42:54.945Z,30.20
2018-06-17T12:45:25.832Z,30.30
2018-06-17T12:47:56.576Z,30.40
2018-06-17T12:50:27.527Z,30.40
2018-06-17T12:52:58.093Z,30.10
2018-06-17T12:55:28.805Z,30.20
2018-06-17T12:57:59.297Z,30.30
2018-06-17T13:00:29.747Z,30.40
2018-06-17T13:03:00.257Z,30.00
2018-06-17T13:05:31.049Z,29.90
2018-06-17T13:08:01.588Z,29.80
2018-06-17T13:10:32.082Z,30.10
2018-06-17T13:13:02.477Z,30.10
2018-06-17T13:15:33.551Z,30.30
2018-06-17T13:18:04.004Z,30.50
2018-06-17T13:20:34.537Z,30.00
2018-06-17T13:23:06.287Z,29.50
2018-06-17T13:25:36.986Z,29.10
2018-06-17T13:28:07.402Z,28.90
2018-06-17T13:30:37.919Z,28.60
2018-06-17T13:33:08.296Z,28.30
2018-06-17T13:35:38.957Z,28.20
2018-06-17T13:38:09.274Z,28.20
2018-06-17T13:40:39.861Z,28.20
2018-06-17T13:43:10.619Z,28.20
2018-06-17T13:45:42.096Z,28.20
2018-06-17T13:48:12.465Z,28.30
2018-06-17T13:50:42.972Z,28.20
2018-06-17T13:53:13.583Z,28.40
2018-06-17T13:55:44.244Z,28.30
2018-06-17T13:58:14.571Z,28.40
2018-06-17T14:00:45.246Z,28.80
2018-06-17T14:03:15.939Z,29.20
2018-06-17T14:05:47.155Z,29.30
2018-06-17T14:08:18.112Z,29.70
2018-06-17T14:10:48.795Z,29.80
2018-06-17T14:13:19.362Z,30.00
2018-06-17T14:15:50.008Z,30.20
2018-06-17T14:18:20.617Z,30.50
2018-06-17T14:20:51.237Z,30.60
2018-06-17T14:23:22.230Z,30.80
2018-06-17T14:25:52.586Z,30.90
2018-06-17T14:28:23.511Z,31.00
2018-06-17T14:30:54.047Z,31.10
2018-06-17T14:33:24.550Z,31.10
2018-06-17T14:35:55.212Z,31.10
2018-06-17T14:38:25.728Z,30.90
2018-06-17T14:41:01.477Z,31.00
2018-06-17T14:43:37.211Z,30.90
2018-06-17T14:46:13.144Z,30.60
2018-06-17T14:48:48.715Z,30.50
2018-06-17T14:51:24.272Z,30.70
2018-06-17T14:53:54.741Z,30.80
2018-06-17T14:56:25.137Z,30.80
2018-06-17T14:58:55.506Z,30.70
2018-06-17T15:01:26.217Z,30.10
2018-06-17T15:03:56.990Z,29.90
2018-06-17T15:06:27.551Z,29.90
2018-06-17T15:08:58.852Z,29.60
2018-06-17T15:11:29.740Z,29.20
2018-06-17T15:14:00.288Z,28.90
2018-06-17T15:16:31.328Z,28.70
2018-06-17T15:19:01.743Z,28.60
2018-06-17T15:21:32.700Z,28.40
2018-06-17T15:24:03.232Z,28.30
2018-06-17T15:26:33.809Z,28.40
2018-06-17T15:29:05.764Z,28.60
2018-06-17T15:31:42.161Z,28.90
2018-06-17T15:34:17.547Z,28.50
2018-06-17T15:36:53.164Z,28.10
2018-06-17T15:39:28.718Z,28.30
2018-06-17T15:41:59.184Z,28.40
2018-06-17T15:44:30.092Z,28.40
2018-06-17T15:47:00.777Z,28.40
2018-06-17T15:49:31.381Z,28.20
2018-06-17T15:52:02.268Z,28.10
2018-06-17T15:54:32.642Z,28.10
2018-06-17T15:57:03.484Z,28.00
2018-06-17T15:59:34.059Z,27.90
2018-06-17T16:02:04.607Z,28.00
2018-06-17T16:04:35.179Z,27.60
2018-06-17T16:07:05.876Z,27.80
2018-06-17T16:09:36.519Z,28.00
2018-06-17T16:12:11.947Z,27.80
2018-06-17T16:15:47.947Z,27.90
2018-06-17T16:18:23.528Z,27.80
2018-06-17T16:20:58.735Z,27.70
2018-06-17T16:23:30.600Z,27.50
2018-06-17T16:26:01.211Z,27.40
2018-06-17T16:28:32.024Z,27.10
2018-06-17T16:31:03.295Z,27.20
2018-06-17T16:33:34.852Z,27.00
2018-06-17T16:36:05.505Z,26.70
2018-06-17T16:38:36.074Z,26.10
2018-06-17T16:41:06.912Z,25.50
2018-06-17T16:43:37.548Z,25.40
2018-06-17T16:46:08.008Z,25.10
2018-06-17T16:48:38.623Z,24.90
2018-06-17T16:51:15.359Z,24.70
2018-06-17T16:54:52.711Z,24.60
2018-06-17T16:57:28.851Z,24.50
2018-06-17T17:00:02.403Z,24.30
2018-06-17T17:02:32.917Z,24.20
2018-06-17T17:05:03.519Z,24.00
2018-06-17T17:07:35.693Z,23.90
2018-06-17T17:10:06.283Z,23.70
2018-06-17T17:12:37.203Z,23.70
2018-06-17T17:15:08.082Z,23.50
2018-06-17T17:17:38.447Z,23.50
2018-06-17T17:20:08.958Z,23.50
2018-06-17T17:22:40.115Z,23.40
2018-06-17T17:25:10.601Z,23.40
2018-06-17T17:27:41.441Z,23.30
2018-06-17T17:30:12.152Z,23.20
2018-06-17T17:32:47.984Z,23.10
2018-06-17T17:35:24.004Z,23.10
2018-06-17T17:37:59.523Z,23.00
2018-06-17T17:40:49.056Z,23.00
2018-06-17T17:43:19.540Z,22.90
2018-06-17T17:45:55.460Z,22.80
2018-06-17T17:48:25.921Z,22.80
2018-06-17T17:50:56.257Z,22.70
2018-06-17T17:53:29.091Z,22.70
2018-06-17T17:56:00.299Z,22.60
2018-06-17T17:58:32.557Z,22.60
2018-06-17T18:01:03.164Z,22.50
2018-06-17T18:03:34.590Z,22.50
2018-06-17T18:06:05.272Z,22.40
2018-06-17T18:08:35.975Z,22.40
2018-06-17T18:11:06.753Z,22.40
2018-06-17T18:13:37.366Z,22.30
2018-06-17T18:16:08.701Z,22.30
2018-06-17T18:18:39.363Z,22.20
2018-06-17T18:21:10.403Z,22.20
2018-06-17T18:23:40.727Z,22.20
2018-06-17T18:26:16.179Z,22.10
2018-06-17T18:28:52.682Z,22.10
2018-06-17T18:31:23.052Z,22.10
2018-06-17T18:33:58.419Z,22.10
2018-06-17T18:36:28.979Z,22.00
2018-06-17T18:38:59.376Z,22.00
2018-06-17T18:44:00.200Z,21.90
2018-06-17T18:46:31.052Z,21.90
2018-06-17T18:49:01.744Z,21.90
2018-06-17T18:51:32.602Z,21.90
2018-06-17T18:54:07.734Z,21.80
2018-06-17T18:56:38.896Z,21.80
2018-06-17T18:59:09.912Z,21.80
2018-06-17T19:01:40.790Z,21.70
2018-06-17T19:04:11.705Z,21.70
2018-06-17T19:06:42.658Z,21.70
2018-06-17T19:09:18.159Z,21.60
2018-06-17T19:11:54.220Z,21.60
2018-06-17T19:14:29.900Z,21.50
2018-06-17T19:17:05.924Z,21.50
2018-06-17T19:19:37.271Z,21.40
2018-06-17T19:22:08.203Z,21.40
2018-06-17T19:24:39.307Z,21.30
2018-06-17T19:27:10.301Z,21.30
2018-06-17T19:29:42.411Z,21.30
2018-06-17T19:32:13.534Z,21.30
2018-06-17T19:34:44.361Z,21.30
2018-06-17T19:37:15.388Z,21.30
2018-06-17T19:39:46.719Z,21.40
2018-06-17T19:42:18.041Z,21.40
2018-06-17T19:44:48.855Z,21.40
2018-06-17T19:47:20.623Z,21.30
2018-06-17T19:49:56.061Z,21.30
2018-06-17T19:52:31.624Z,21.30
2018-06-17T19:55:08.319Z,21.20
2018-06-17T19:57:43.771Z,21.20
2018-06-17T20:00:19.995Z,21.20
2018-06-17T20:02:51.046Z,21.10
2018-06-17T20:05:22.016Z,21.10
2018-06-17T20:07:52.899Z,21.00
2018-06-17T20:10:23.821Z,21.00
2018-06-17T20:12:54.627Z,20.90
2018-06-17T20:15:25.951Z,20.90
2018-06-17T20:17:56.652Z,20.80
2018-06-17T20:20:27.394Z,20.80
2018-06-17T20:22:58.828Z,20.70
2018-06-17T20:25:31.471Z,20.70
2018-06-17T20:28:02.402Z,20.60
2018-06-17T20:30:33.312Z,20.50
2018-06-17T20:35:45.450Z,20.40
2018-06-17T20:38:23.846Z,20.40
2018-06-17T20:42:03.412Z,20.40
2018-06-17T20:44:34.296Z,20.30
2018-06-17T20:47:05.767Z,20.20
2018-06-17T20:49:37.072Z,20.20
2018-06-17T20:52:08.702Z,20.10
2018-06-17T20:54:40.045Z,20.10
2018-06-17T20:57:13.607Z,20.10
2018-06-17T20:59:44.954Z,20.10
2018-06-17T21:02:15.667Z,20.00
2018-06-17T21:04:46.996Z,20.00
2018-06-17T21:07:17.332Z,20.00
2018-06-17T21:09:49.144Z,20.00
2018-06-17T21:12:20.678Z,19.90
2018-06-17T21:14:51.368Z,19.90
2018-06-17T21:17:23.731Z,19.80
2018-06-17T21:19:59.266Z,19.80
2018-06-17T21:22:35.959Z,19.80
2018-06-17T21:25:13.125Z,19.80
2018-06-17T21:27:44.126Z,19.80
2018-06-17T21:30:14.951Z,19.70
2018-06-17T21:32:45.447Z,19.70
2018-06-17T21:35:16.603Z,19.70
2018-06-17T21:37:47.221Z,19.70
2018-06-17T21:40:18.014Z,19.80
2018-06-17T21:42:48.383Z,19.80
2018-06-17T21:47:49.990Z,19.70
2018-06-17T21:50:20.394Z,19.70
2018-06-17T21:52:57.274Z,19.70
2018-06-17T21:59:10.041Z,19.60
2018-06-17T22:05:48.974Z,19.60
2018-06-17T22:09:07.654Z,19.60
2018-06-17T22:17:58.096Z,19.50
2018-06-17T22:20:28.799Z,19.50
2018-06-17T22:22:59.384Z,19.50
2018-06-17T22:27:59.933Z,19.40
2018-06-17T22:30:30.731Z,19.40
2018-06-17T22:33:01.342Z,19.40
2018-06-17T22:35:31.954Z,19.40
2018-06-17T22:38:02.399Z,19.40
2018-06-17T22:40:33.463Z,19.40
2018-06-17T22:43:04.057Z,19.30
2018-06-17T22:45:37.860Z,19.30
2018-06-17T22:48:08.253Z,19.30
2018-06-17T22:50:38.674Z,19.30
2018-06-17T22:53:20.047Z,19.30
2018-06-17T22:55:50.711Z,19.20
2018-06-17T22:58:26.184Z,19.20
2018-06-17T23:01:01.555Z,19.20
2018-06-17T23:03:37.204Z,19.20
2018-06-17T23:06:12.458Z,19.20
2018-06-17T23:08:48.041Z,19.20
2018-06-17T23:11:19.069Z,19.20
2018-06-17T23:13:49.803Z,19.10
2018-06-17T23:16:20.360Z,19.10
2018-06-17T23:18:50.917Z,19.10
2018-06-17T23:21:21.624Z,19.10
2018-06-17T23:23:52.097Z,19.10
2018-06-17T23:26:22.541Z,19.10
2018-06-17T23:28:52.961Z,19.10
2018-06-17T23:31:23.320Z,19.20
2018-06-17T23:33:54.007Z,19.10
2018-06-17T23:36:24.507Z,19.10
2018-06-17T23:38:54.917Z,19.10
2018-06-17T23:41:25.436Z,19.10
2018-06-17T23:43:56.136Z,19.10
2018-06-17T23:46:31.992Z,19.10
2018-06-17T23:49:07.545Z,19.10
2018-06-17T23:51:43.239Z,19.10
2018-06-17T23:54:18.967Z,19.00
2018-06-17T23:56:49.675Z,19.00
2018-06-17T23:59:20.526Z,19.00
